Houston, Texas
Traffic Map
Current Weather Conditions
Houston, Texas
Clear
Clear
63°
Feels Like: 63°
Wind Chill: 63° Ceiling: Unl
Heat Index: 63° Visibility: 10mi
Dew Point: 54° Wind: 8mph
Humidity: 72% Direction: 30° (NNE)
Pressure: 30.04in Gusts: 0mph
Raw Report DataKMCJ 231055Z AUTO 03007KT 10SM CLR 17/12 A3004 RMK AO1
Traffic Incident Summary
Active as of:
Severity:
Category:
InformationThere was an issue retrieving the traffic information for this location. Please try a different location or try again shortly.
Advertisements
Track Severe Weather on mobile